Time;durP1;ratioP1;P1;durP2;ratioP2;P2;SDS_P1;SDS_P2;PMS_P1;PMS_P2;Temp;Humidity;BMP_temperature;BMP_pressure;BME280_temperature;BME280_humidity;BME280_pressure;Samples;Min_cycle;Max_cycle;Signal;HPM_P1;HPM_P2
2022/12/03 00:02:03;;;;;;;246.20;128.25;;;;;;;15.44;77.12;98976.97;5014302;28;20041;-62
2022/12/03 00:05:12;;;;;;;255.93;132.55;;;;;;;15.51;76.99;98979.53;5007643;28;20161;-62
2022/12/03 00:08:21;;;;;;;251.15;128.20;;;;;;;15.42;76.73;98973.69;5011286;28;20173;-62
2022/12/03 00:11:30;;;;;;;250.75;130.25;;;;;;;15.57;76.58;98978.56;4978082;28;20072;-62
2022/12/03 00:14:39;;;;;;;255.05;128.45;;;;;;;15.47;76.80;98980.00;5006925;28;20125;-63
2022/12/03 00:17:48;;;;;;;240.27;127.60;;;;;;;15.49;76.91;98984.34;4999557;28;20042;-62
2022/12/03 00:20:57;;;;;;;253.13;132.23;;;;;;;15.46;76.54;98986.47;5007680;28;20394;-63
2022/12/03 00:24:06;;;;;;;255.98;130.43;;;;;;;15.45;76.85;98995.66;5022562;28;20127;-62
2022/12/03 00:27:09;;;;;;;248.27;126.90;;;;;;;15.40;76.70;98990.16;5002473;28;20053;-64
2022/12/03 00:30:18;;;;;;;243.80;125.93;;;;;;;15.42;76.88;98982.63;5026593;28;20041;-62
2022/12/03 00:33:21;;;;;;;261.73;129.23;;;;;;;15.45;76.65;98982.13;5013524;28;20160;-62
2022/12/03 00:36:30;;;;;;;249.05;129.10;;;;;;;15.45;76.55;98974.00;5012668;28;20057;-63
2022/12/03 00:39:32;;;;;;;255.45;128.40;;;;;;;15.36;76.71;98978.16;5010110;28;20500;-63
2022/12/03 00:42:42;;;;;;;254.07;128.98;;;;;;;15.36;76.18;98978.16;5012374;28;20060;-64
2022/12/03 00:45:44;;;;;;;254.85;129.38;;;;;;;15.30;76.80;98979.09;5005771;28;20133;-63
2022/12/03 00:48:54;;;;;;;264.95;132.07;;;;;;;15.38;76.77;98984.16;4987863;28;20054;-64
2022/12/03 00:51:56;;;;;;;282.85;135.50;;;;;;;15.32;77.03;98982.38;4989104;28;20473;-63
2022/12/03 00:55:05;;;;;;;274.70;135.13;;;;;;;15.13;77.63;98984.41;4974703;28;20086;-62
2022/12/03 00:58:08;;;;;;;272.10;135.88;;;;;;;15.22;77.51;98998.41;5009269;28;20650;-63
2022/12/03 01:01:18;;;;;;;271.90;140.15;;;;;;;15.26;77.77;99007.69;5024226;28;20045;-63
2022/12/03 01:04:23;;;;;;;258.80;135.48;;;;;;;15.32;77.17;99008.63;4983564;28;20069;-62
2022/12/03 01:07:32;;;;;;;267.77;138.68;;;;;;;15.27;76.06;99022.84;5016285;28;20037;-62
2022/12/03 01:10:34;;;;;;;263.17;134.70;;;;;;;15.22;77.35;99030.84;5011762;28;20038;-62
2022/12/03 01:13:49;;;;;;;271.13;136.10;;;;;;;15.31;76.90;99039.44;4987289;28;20094;-61
2022/12/03 01:16:45;;;;;;;271.98;138.13;;;;;;;15.23;76.62;99040.63;4985529;28;20049;-62
2022/12/03 01:19:54;;;;;;;;;;;;;;;15.29;76.83;99044.25;4983283;28;20037;-62
2022/12/03 01:22:57;;;;;;;274.23;135.27;;;;;;;15.16;77.27;99040.72;5013326;28;19936;-61
2022/12/03 01:26:05;;;;;;;274.25;142.60;;;;;;;15.14;77.72;99044.72;5005166;28;20060;-62
2022/12/03 01:29:09;;;;;;;281.92;140.90;;;;;;;15.02;78.07;99050.13;5007149;28;20245;-64
2022/12/03 01:32:19;;;;;;;293.05;149.18;;;;;;;14.95;77.71;99057.53;5005660;28;20057;-63
2022/12/03 01:35:28;;;;;;;288.10;145.25;;;;;;;15.13;78.09;99051.19;5012105;28;20058;-62
2022/12/03 01:38:30;;;;;;;280.88;144.88;;;;;;;15.02;77.13;99059.06;5011034;28;20080;-62
2022/12/03 01:41:42;;;;;;;289.42;149.50;;;;;;;14.74;78.19;99067.03;5003540;28;20136;-62
2022/12/03 01:44:43;;;;;;;;;;;;;;;14.82;78.18;99063.97;5015495;28;20068;-63
2022/12/03 01:47:53;;;;;;;278.23;142.18;;;;;;;14.68;78.79;99071.47;4986280;28;19952;-63
2022/12/03 01:50:55;;;;;;;302.55;145.85;;;;;;;14.70;79.39;99077.47;4973000;28;20050;-61
2022/12/03 01:54:08;;;;;;;286.90;145.35;;;;;;;14.60;78.53;99077.22;4974030;28;20658;-62
2022/12/03 01:57:19;;;;;;;302.23;150.35;;;;;;;14.61;78.64;99084.25;5005575;28;20136;-62
2022/12/03 02:00:27;;;;;;;288.20;146.80;;;;;;;14.64;78.96;99100.81;5002034;28;20041;-63
2022/12/03 02:03:36;;;;;;;294.23;149.88;;;;;;;14.59;78.41;99095.28;5005301;28;20080;-63
2022/12/03 02:06:38;;;;;;;287.38;152.38;;;;;;;14.50;78.61;99104.72;4992451;28;20124;-64
2022/12/03 02:09:47;;;;;;;286.55;147.73;;;;;;;14.63;79.70;99103.75;5023358;28;20091;-63
2022/12/03 02:13:08;;;;;;;298.35;152.98;;;;;;;14.90;78.47;99108.75;4985139;28;20058;-63
2022/12/03 02:16:10;;;;;;;;;;;;;;;15.00;78.28;99112.53;5026149;28;20104;-63
2022/12/03 02:19:36;;;;;;;305.70;154.13;;;;;;;14.82;78.10;99112.59;5025798;28;19936;-63
2022/12/03 02:22:53;;;;;;;306.20;156.02;;;;;;;14.80;78.32;99125.53;4997306;28;20049;-63
2022/12/03 02:26:04;;;;;;;323.48;161.65;;;;;;;14.95;79.04;99127.78;5007280;28;20056;-63
2022/12/03 02:29:05;;;;;;;320.45;161.45;;;;;;;15.15;78.08;99127.47;5005920;28;20693;-61
2022/12/03 02:32:15;;;;;;;314.10;161.05;;;;;;;15.27;77.75;99120.19;5003007;28;20050;-63
2022/12/03 02:35:27;;;;;;;322.40;165.23;;;;;;;15.44;77.14;99133.84;5004732;28;20147;-63
2022/12/03 02:38:33;;;;;;;312.88;165.15;;;;;;;15.56;77.42;99136.53;5004173;28;20114;-62
2022/12/03 02:45:05;;;;;;;294.95;156.23;;;;;;;15.58;77.94;99143.34;5008812;28;20042;-63
2022/12/03 02:48:18;;;;;;;314.10;161.05;;;;;;;15.69;77.66;99149.81;5019547;28;20831;-63
2022/12/03 02:51:21;;;;;;;311.75;157.82;;;;;;;15.87;77.85;99150.78;5016131;28;20096;-63
2022/12/03 02:54:30;;;;;;;322.98;165.05;;;;;;;16.01;77.38;99153.00;5023612;28;20060;-63
2022/12/03 02:57:42;;;;;;;323.98;165.60;;;;;;;16.05;76.32;99153.34;5000700;28;20760;-65
2022/12/03 03:00:53;;;;;;;330.48;172.90;;;;;;;16.23;75.58;99150.44;4999693;28;20045;-65
2022/12/03 03:03:58;;;;;;;346.73;182.50;;;;;;;16.41;75.34;99160.28;5024167;28;20084;-63
2022/12/03 03:07:07;;;;;;;360.98;184.75;;;;;;;16.48;74.86;99165.56;5005461;28;20426;-63
2022/12/03 03:10:13;;;;;;;354.30;185.88;;;;;;;16.62;74.87;99169.63;5015777;28;20042;-64
2022/12/03 03:13:22;;;;;;;334.20;178.48;;;;;;;16.70;75.12;99173.00;4984291;28;20050;-63
2022/12/03 03:16:26;;;;;;;350.80;182.70;;;;;;;16.85;75.28;99186.03;5008508;28;20049;-64
2022/12/03 03:19:36;;;;;;;350.52;185.55;;;;;;;17.14;73.56;99189.53;5028043;28;20133;-64
2022/12/03 03:22:40;;;;;;;337.65;180.98;;;;;;;17.55;72.46;99192.91;4986763;28;20108;-65
2022/12/03 03:26:07;;;;;;;321.50;173.52;;;;;;;17.48;73.55;99195.78;5000739;28;20477;-63
2022/12/03 03:29:10;;;;;;;312.15;172.15;;;;;;;17.65;73.86;99193.06;5027457;28;20060;-63
2022/12/03 03:32:19;;;;;;;301.65;163.77;;;;;;;18.12;72.35;99200.00;5012701;28;20081;-64
2022/12/03 03:35:30;;;;;;;287.38;155.95;;;;;;;18.59;70.42;99202.19;5007516;28;20126;-62
2022/12/03 03:38:33;;;;;;;293.05;156.75;;;;;;;18.94;69.54;99201.81;5025321;28;20046;-63
2022/12/03 03:41:43;;;;;;;270.13;151.27;;;;;;;19.07;68.79;99206.00;5024991;28;20037;-64
2022/12/03 03:44:39;;;;;;;265.80;149.07;;;;;;;19.35;68.38;99215.75;4987380;28;20174;-64
2022/12/03 03:47:49;;;;;;;242.80;139.70;;;;;;;20.42;65.38;99217.56;5026869;28;20064;-65
2022/12/03 03:50:52;;;;;;;239.52;137.88;;;;;;;20.71;64.94;99220.72;5027548;28;20774;-64
2022/12/03 03:54:03;;;;;;;231.52;136.10;;;;;;;20.98;65.40;99229.75;5006378;28;20038;-62
2022/12/03 03:57:05;;;;;;;216.43;133.85;;;;;;;21.13;62.63;99232.50;5021505;28;20041;-62
2022/12/03 04:00:14;;;;;;;211.48;124.47;;;;;;;21.38;62.63;99229.00;5007354;28;20517;-65
2022/12/03 04:03:23;;;;;;;199.02;121.50;;;;;;;21.54;61.07;99229.84;5025763;28;20841;-64
2022/12/03 04:06:27;;;;;;;198.93;122.70;;;;;;;21.64;60.95;99242.69;5025803;28;20046;-63
2022/12/03 04:09:36;;;;;;;204.63;123.15;;;;;;;21.72;62.78;99244.84;5017908;28;20049;-63
2022/12/03 04:12:54;;;;;;;217.02;128.68;;;;;;;21.80;62.04;99246.22;5013090;28;20075;-62
2022/12/03 04:15:56;;;;;;;219.88;131.00;;;;;;;21.95;61.52;99250.84;5013613;28;20139;-63
2022/12/03 04:19:04;;;;;;;201.20;123.68;;;;;;;22.31;60.25;99253.53;5026939;28;20037;-62
2022/12/03 04:28:55;;;;;;;185.93;115.18;;;;;;;22.17;60.79;99261.47;5005730;28;20073;-63
2022/12/03 04:35:43;;;;;;;199.52;117.50;;;;;;;22.63;59.07;99270.38;5007834;28;20046;-64
2022/12/03 04:38:52;;;;;;;205.02;120.63;;;;;;;22.42;59.31;99277.81;4985382;28;20041;-64
2022/12/03 04:42:01;;;;;;;202.40;120.57;;;;;;;22.15;59.65;99275.41;4968299;28;20169;-64
2022/12/03 04:45:10;;;;;;;207.85;123.85;;;;;;;22.28;59.05;99282.25;4968104;28;20783;-65
2022/12/03 04:48:19;;;;;;;214.77;126.40;;;;;;;22.43;59.56;99281.38;4969208;28;20061;-64
2022/12/03 04:51:22;;;;;;;220.32;127.60;;;;;;;22.06;60.04;99280.59;4995480;28;20061;-64
2022/12/03 04:54:32;;;;;;;213.70;126.00;;;;;;;21.57;61.77;99278.47;4990182;28;20057;-65
2022/12/03 04:57:36;;;;;;;188.23;113.60;;;;;;;22.09;60.15;99284.72;4988944;28;20077;-64
2022/12/03 05:00:45;;;;;;;178.23;108.53;;;;;;;22.25;59.64;99275.41;5005786;28;20045;-66
2022/12/03 05:03:47;;;;;;;159.48;98.80;;;;;;;22.24;57.96;99272.91;5001112;28;20479;-66
2022/12/03 05:06:56;;;;;;;166.50;101.05;;;;;;;21.50;59.60;99269.72;4984250;28;20084;-66
2022/12/03 05:09:59;;;;;;;168.07;103.53;;;;;;;21.31;60.77;99272.94;5006042;28;20045;-66
2022/12/03 05:13:08;;;;;;;177.93;105.75;;;;;;;21.73;61.14;99273.81;4966445;28;20073;-67
2022/12/03 05:16:11;;;;;;;169.05;105.85;;;;;;;21.82;60.18;99279.53;4967536;28;20061;-63
2022/12/03 05:19:20;;;;;;;160.02;99.70;;;;;;;22.43;60.39;99279.47;4982834;28;20145;-62
2022/12/03 05:22:23;;;;;;;157.85;96.63;;;;;;;22.00;59.53;99283.63;4994077;28;20516;-63
2022/12/03 05:25:32;;;;;;;163.85;101.72;;;;;;;22.60;61.43;99286.50;4987686;28;20042;-63
2022/12/03 05:28:35;;;;;;;152.07;98.47;;;;;;;22.55;60.33;99279.16;4963586;28;20533;-64
2022/12/03 05:31:44;;;;;;;153.23;94.43;;;;;;;22.29;58.58;99272.94;4963505;28;20399;-61
2022/12/03 05:34:45;;;;;;;149.93;91.75;;;;;;;22.83;58.35;99268.63;4964970;28;20061;-64
2022/12/03 05:37:55;;;;;;;144.10;89.18;;;;;;;22.90;57.12;99273.81;4973149;28;20137;-65
2022/12/03 05:40:57;;;;;;;150.82;92.60;;;;;;;23.90;57.32;99269.84;4968542;28;20050;-65
2022/12/03 05:44:06;;;;;;;141.35;88.90;;;;;;;24.26;55.28;99274.97;4983916;28;20524;-63
2022/12/03 05:47:07;;;;;;;140.88;85.22;;;;;;;23.88;54.05;99269.31;4982947;28;20058;-65
2022/12/03 05:50:18;;;;;;;144.05;85.80;;;;;;;24.34;54.92;99263.38;4989235;28;21021;-61
2022/12/03 05:53:40;;;;;;;141.90;85.82;;;;;;;24.78;54.47;99266.97;4984447;28;20154;-65
2022/12/03 05:56:50;;;;;;;127.78;83.75;;;;;;;24.88;55.05;99271.50;4981008;28;20137;-62
2022/12/03 05:59:59;;;;;;;151.40;89.60;;;;;;;24.56;51.47;99259.31;4980210;28;20049;-61
2022/12/03 06:03:10;;;;;;;131.75;85.82;;;;;;;25.03;53.89;99260.34;5002479;28;20465;-64
2022/12/03 06:06:11;;;;;;;143.83;87.20;;;;;;;24.49;52.57;99250.59;5000179;28;20709;-64
2022/12/03 06:09:01;;;;;;;133.63;82.18;;;;;;;24.81;51.44;99252.69;4994664;28;20061;-64
2022/12/03 06:11:52;;;;;;;128.60;78.38;;;;;;;25.01;53.46;99254.31;4990103;28;20568;-66
2022/12/03 06:14:48;;;;;;;126.90;78.50;;;;;;;25.16;53.76;99239.53;4966764;28;20050;-65
2022/12/03 06:17:37;;;;;;;121.28;76.18;;;;;;;25.19;50.62;99236.22;4987161;28;20050;-64
2022/12/03 06:20:27;;;;;;;124.47;75.47;;;;;;;24.94;53.33;99231.91;4986307;28;20053;-65
2022/12/03 06:23:15;;;;;;;127.68;77.85;;;;;;;25.27;51.88;99229.25;4987060;28;20047;-69
2022/12/03 06:26:05;;;;;;;113.40;73.63;;;;;;;25.37;51.03;99226.34;4986423;28;20504;-64
2022/12/03 06:28:48;;;;;;;116.75;72.22;;;;;;;24.10;50.44;99227.72;4995197;28;20070;-64
2022/12/03 06:31:37;;;;;;;108.90;71.45;;;;;;;24.86;50.40;99221.59;4983374;28;20121;-64
2022/12/03 06:34:19;;;;;;;110.00;69.40;;;;;;;24.29;52.29;99219.56;4999570;28;20049;-66
2022/12/03 06:37:08;;;;;;;110.60;69.35;;;;;;;24.39;50.47;99211.19;5004836;28;20065;-65
2022/12/03 06:39:49;;;;;;;109.82;71.15;;;;;;;25.07;51.49;99192.72;4986223;28;20058;-62
2022/12/03 06:42:39;;;;;;;109.53;70.53;;;;;;;25.02;50.10;99198.28;4966362;28;20047;-66
2022/12/03 06:45:20;;;;;;;106.30;68.60;;;;;;;25.50;48.95;99189.84;4986936;28;20046;-65
2022/12/03 06:48:10;;;;;;;107.32;66.72;;;;;;;25.29;48.33;99183.88;4988483;28;20045;-66
2022/12/03 06:50:51;;;;;;;100.07;65.10;;;;;;;24.87;47.77;99179.31;4995845;28;20137;-66
2022/12/03 06:53:41;;;;;;;94.10;63.55;;;;;;;25.13;49.33;99174.25;4996207;28;20052;-64
2022/12/03 06:56:22;;;;;;;105.70;66.57;;;;;;;25.43;50.34;99170.19;5009107;28;20057;-67
2022/12/03 06:59:18;;;;;;;101.00;64.25;;;;;;;24.75;47.34;99168.78;5008301;28;20064;-65
2022/12/03 07:02:08;;;;;;;91.72;60.35;;;;;;;25.37;47.51;99165.91;5004421;28;20497;-65
2022/12/03 07:04:57;;;;;;;104.43;63.75;;;;;;;25.37;47.96;99152.16;5007360;28;20069;-68
2022/12/03 07:07:38;;;;;;;98.18;63.10;;;;;;;25.42;47.45;99152.06;5009377;28;20077;-66
2022/12/03 07:10:28;;;;;;;103.68;63.28;;;;;;;25.44;45.83;99138.84;5003550;28;20133;-65
2022/12/03 07:13:10;;;;;;;92.05;60.25;;;;;;;24.60;46.85;99147.84;4991287;28;20050;-65
2022/12/03 07:16:05;;;;;;;94.93;59.53;;;;;;;25.19;48.56;99135.41;4989508;28;20058;-65
2022/12/03 07:18:54;;;;;;;91.45;59.20;;;;;;;25.41;48.68;99142.19;4989086;28;20525;-66
2022/12/03 07:21:44;;;;;;;88.25;59.95;;;;;;;25.34;46.75;99133.53;4991329;28;20047;-64
2022/12/03 07:24:26;;;;;;;92.13;59.03;;;;;;;25.18;46.65;99131.03;4985716;28;20042;-65
2022/12/03 07:27:15;;;;;;;85.65;56.40;;;;;;;25.31;47.11;99126.69;4979667;28;20050;-64
2022/12/03 07:30:05;;;;;;;79.82;54.58;;;;;;;25.49;44.72;99122.28;4979599;28;20047;-65
2022/12/03 07:32:55;;;;;;;93.43;56.58;;;;;;;25.39;47.89;99123.28;4978315;28;20157;-64
2022/12/03 07:35:36;;;;;;;82.40;52.20;;;;;;;25.28;45.78;99113.59;4981726;28;20144;-64
2022/12/03 07:38:26;;;;;;;92.07;53.75;;;;;;;25.41;46.94;99109.22;4980663;28;20120;-63
2022/12/03 07:41:14;;;;;;;83.35;53.65;;;;;;;25.25;46.58;99113.38;4980906;28;20042;-63
2022/12/03 07:44:04;;;;;;;79.30;47.20;;;;;;;25.44;46.22;99105.06;4979836;28;20050;-64
2022/12/03 07:46:54;;;;;;;66.22;40.45;;;;;;;25.47;42.58;99098.94;4981543;28;20057;-65
2022/12/03 07:49:43;;;;;;;69.30;39.83;;;;;;;25.58;42.95;99101.22;4980125;28;20051;-64
2022/12/03 07:52:25;;;;;;;61.60;35.45;;;;;;;25.04;38.04;99088.97;4976046;28;20050;-66
2022/12/03 07:55:15;;;;;;;48.33;30.10;;;;;;;25.19;36.16;99085.94;4977573;28;20073;-64
2022/12/03 07:57:57;;;;;;;54.80;35.72;;;;;;;25.34;39.30;99084.09;4980856;28;20088;-65
2022/12/03 08:00:46;;;;;;;79.10;43.55;;;;;;;24.94;40.51;99083.66;4960034;28;20046;-63
2022/12/03 08:03:35;;;;;;;62.35;39.42;;;;;;;25.37;40.12;99080.72;4979033;28;20070;-65
2022/12/03 08:06:24;;;;;;;59.83;40.15;;;;;;;25.39;39.16;99071.09;4975547;28;20125;-67
2022/12/03 08:09:06;;;;;;;69.50;39.85;;;;;;;25.36;40.32;99068.13;4985449;28;20872;-66
2022/12/03 08:11:56;;;;;;;71.20;40.08;;;;;;;25.33;41.62;99063.22;4979985;28;20038;-66
2022/12/03 08:14:38;;;;;;;63.95;39.58;;;;;;;25.27;40.82;99061.69;4962337;28;20054;-67
2022/12/03 08:17:29;;;;;;;62.45;40.90;;;;;;;25.37;41.10;99054.09;5000210;28;20045;-64
2022/12/03 08:20:20;;;;;;;67.82;41.00;;;;;;;25.42;40.79;99050.41;4999832;28;20481;-64
2022/12/03 08:23:03;;;;;;;63.30;41.60;;;;;;;25.28;42.00;99049.56;4995681;28;20052;-64
2022/12/03 08:25:52;;;;;;;73.57;42.83;;;;;;;25.35;41.73;99036.25;4996616;28;20054;-64
2022/12/03 08:28:35;;;;;;;75.25;45.50;;;;;;;25.32;41.34;99039.63;5003063;28;20640;-64
2022/12/03 08:31:25;;;;;;;91.05;51.42;;;;;;;25.42;42.80;99033.94;4997434;28;20042;-64
2022/12/03 08:34:23;;;;;;;91.15;54.30;;;;;;;25.32;43.32;99034.94;5003510;28;20049;-63
2022/12/03 08:37:18;;;;;;;97.43;57.00;;;;;;;25.45;42.16;99027.84;4993117;28;20072;-62
2022/12/03 08:40:01;;;;;;;88.20;55.75;;;;;;;25.35;43.72;99019.78;4977896;28;20050;-60
2022/12/03 08:42:50;;;;;;;97.82;60.05;;;;;;;25.46;44.01;99023.94;4989351;28;20050;-63
2022/12/03 08:45:42;;;;;;;104.18;63.03;;;;;;;25.42;43.90;99014.69;4999623;28;20050;-67
2022/12/03 08:48:31;;;;;;;122.85;67.82;;;;;;;25.34;43.18;99009.91;4979951;28;20071;-63
2022/12/03 08:51:30;;;;;;;114.32;71.35;;;;;;;25.31;43.97;99011.31;4990197;28;20128;-62
2022/12/03 08:54:18;;;;;;;121.72;71.85;;;;;;;25.56;43.23;99007.25;4998368;28;20058;-63
2022/12/03 08:57:33;;;;;;;125.35;73.00;;;;;;;25.42;44.67;99006.44;5006931;28;20054;-62
2022/12/03 09:00:22;;;;;;;121.05;73.90;;;;;;;25.39;43.11;99005.13;4968066;28;20058;-63
2022/12/03 09:03:16;;;;;;;140.60;76.55;;;;;;;24.95;42.95;99002.91;4968718;28;20054;-62
2022/12/03 09:05:58;;;;;;;123.85;73.45;;;;;;;25.26;43.30;98999.63;4977476;28;20571;-62
2022/12/03 09:08:47;;;;;;;128.07;71.95;;;;;;;25.27;44.85;99001.25;5007900;28;20050;-62
2022/12/03 09:11:28;;;;;;;135.68;76.75;;;;;;;25.19;42.47;98997.25;4994650;28;20065;-65
2022/12/03 09:14:22;;;;;;;121.47;73.13;;;;;;;25.10;44.40;98999.06;4996194;28;20052;-63
2022/12/03 09:17:04;;;;;;;126.93;73.18;;;;;;;25.12;42.90;98991.34;5007280;28;20064;-63
2022/12/03 09:19:53;;;;;;;120.00;69.53;;;;;;;25.08;41.30;98987.56;5008670;28;20054;-62
2022/12/03 09:22:36;;;;;;;121.97;68.35;;;;;;;24.90;41.74;98990.09;4989999;28;20050;-62
2022/12/03 09:25:25;;;;;;;127.90;68.85;;;;;;;24.93;41.89;98983.16;4983928;28;20065;-62
2022/12/03 09:28:07;;;;;;;112.38;63.47;;;;;;;24.92;42.77;98984.31;5003219;28;20104;-61
2022/12/03 09:30:58;;;;;;;111.55;60.97;;;;;;;24.83;43.16;98981.44;4982670;28;20053;-61
2022/12/03 09:33:53;;;;;;;109.05;60.22;;;;;;;24.81;44.29;98976.22;4970783;28;20483;-61
2022/12/03 09:36:43;;;;;;;100.15;55.45;;;;;;;24.56;42.32;98974.75;4978942;28;20082;-60
2022/12/03 09:39:25;;;;;;;93.97;54.28;;;;;;;24.83;42.67;98970.44;4985286;28;20138;-62
2022/12/03 09:42:15;;;;;;;101.80;53.40;;;;;;;24.74;43.18;98978.56;4980698;28;20129;-62
2022/12/03 09:45:04;;;;;;;91.18;51.33;;;;;;;24.69;43.00;98972.38;4978751;28;20140;-64
2022/12/03 09:47:48;;;;;;;74.75;43.80;;;;;;;24.52;40.97;98973.72;4972788;28;20094;-62
2022/12/03 09:50:37;;;;;;;77.63;40.38;;;;;;;24.36;40.45;98970.41;4974202;28;20053;-62
2022/12/03 09:53:22;;;;;;;70.57;39.40;;;;;;;24.55;40.99;98975.03;4975554;28;20054;-60
2022/12/03 09:56:11;;;;;;;71.47;39.38;;;;;;;24.58;41.35;98967.03;4963570;28;20050;-65
2022/12/03 09:58:53;;;;;;;65.38;36.85;;;;;;;24.46;40.80;98969.41;4976638;28;20061;-64
2022/12/03 10:01:42;;;;;;;54.15;32.67;;;;;;;24.28;39.71;98968.31;4967604;28;20046;-63
2022/12/03 10:04:24;;;;;;;59.00;33.35;;;;;;;24.51;39.86;98971.25;4974207;28;20061;-63
2022/12/03 10:07:32;;;;;;;57.83;28.15;;;;;;;24.32;38.11;98976.75;4970505;28;20057;-63
2022/12/03 10:10:23;;;;;;;45.83;25.27;;;;;;;24.36;36.97;98970.41;4979330;28;20042;-64
2022/12/03 10:13:27;;;;;;;44.85;24.17;;;;;;;24.24;39.16;98973.56;4967943;28;20053;-64
2022/12/03 10:16:45;;;;;;;58.33;24.95;;;;;;;24.22;37.60;98970.31;4986068;28;20767;-63
2022/12/03 10:19:41;;;;;;;45.85;25.52;;;;;;;24.16;37.75;98970.72;4985882;28;20092;-59
2022/12/03 10:22:51;;;;;;;95.45;28.00;;;;;;;24.15;41.26;98977.28;4988296;28;20188;-64
2022/12/03 10:26:03;;;;;;;40.88;24.70;;;;;;;24.08;40.16;98968.66;4996396;28;20433;-64
2022/12/03 10:29:19;;;;;;;45.83;25.40;;;;;;;23.97;40.62;98963.28;4988419;28;20090;-63
2022/12/03 10:32:21;;;;;;;44.22;25.13;;;;;;;23.97;45.00;98967.97;4982843;28;20129;-62
2022/12/03 10:35:40;;;;;;;49.72;27.30;;;;;;;23.79;44.67;98967.66;4995301;28;20042;-65
2022/12/03 10:38:49;;;;;;;49.00;27.40;;;;;;;23.76;46.22;98972.88;4990855;28;20745;-62
2022/12/03 10:41:53;;;;;;;54.13;29.35;;;;;;;23.67;45.19;98974.66;4956412;28;20424;-62
2022/12/03 10:45:19;;;;;;;51.65;29.42;;;;;;;23.51;47.75;98974.84;4957561;28;20089;-64
2022/12/03 10:48:28;;;;;;;65.38;32.72;;;;;;;23.50;46.78;98969.66;4982344;28;20627;-65
2022/12/03 10:51:30;;;;;;;64.97;35.40;;;;;;;23.40;48.31;98973.34;4981567;28;20038;-65
2022/12/03 10:54:38;;;;;;;70.28;36.58;;;;;;;23.33;48.97;98967.38;4989452;28;20713;-66
2022/12/03 10:57:53;;;;;;;68.68;40.05;;;;;;;23.30;49.29;98968.00;4979540;28;20057;-63
2022/12/03 11:01:12;;;;;;;73.50;41.45;;;;;;;23.30;51.61;98970.72;4969903;28;20137;-62
2022/12/03 11:04:18;;;;;;;76.18;42.33;;;;;;;23.22;52.19;98969.44;4980231;28;20050;-62
2022/12/03 11:07:29;;;;;;;79.53;45.10;;;;;;;23.14;52.85;98968.16;4970884;28;20043;-62
2022/12/03 11:10:37;;;;;;;79.85;46.75;;;;;;;23.02;54.02;98968.53;4969506;28;20077;-62
2022/12/03 11:13:40;;;;;;;81.18;47.00;;;;;;;22.80;55.75;98973.69;4979075;28;20046;-64
2022/12/03 11:16:58;;;;;;;86.38;49.33;;;;;;;22.75;56.80;98977.25;4991689;28;20066;-64
2022/12/03 11:20:32;;;;;;;84.30;48.92;;;;;;;22.66;58.17;98979.81;4987583;28;20070;-63
2022/12/03 11:23:17;;;;;;;85.78;48.95;;;;;;;22.45;57.46;98978.34;4961304;28;20081;-64
2022/12/03 11:26:37;;;;;;;93.35;50.30;;;;;;;22.45;57.10;98975.59;4994400;28;20068;-66
2022/12/03 11:29:22;;;;;;;94.80;51.50;;;;;;;22.49;57.34;98973.97;4997382;28;20061;-64
2022/12/03 11:32:38;;;;;;;93.55;52.17;;;;;;;22.63;56.87;98979.56;4973829;28;20109;-70
2022/12/03 11:35:44;;;;;;;112.30;53.15;;;;;;;22.45;58.13;98984.66;4982933;28;20058;-64
2022/12/03 11:38:54;;;;;;;100.75;53.70;;;;;;;22.26;58.08;98981.78;4981548;28;20065;-65
2022/12/03 11:41:41;;;;;;;116.30;58.08;;;;;;;22.16;59.58;98976.34;4971160;28;20401;-65
2022/12/03 11:44:31;;;;;;;115.18;60.70;;;;;;;22.27;59.01;98977.94;4973633;28;20052;-64
2022/12/03 11:47:23;;;;;;;112.93;61.35;;;;;;;22.01;60.45;98974.53;4987687;28;20076;-63
2022/12/03 11:50:22;;;;;;;114.53;65.80;;;;;;;21.97;60.48;98983.56;4981464;28;20051;-62
2022/12/03 11:53:32;;;;;;;115.20;68.07;;;;;;;21.83;60.90;98972.47;4995503;28;20053;-65
2022/12/03 11:56:35;;;;;;;117.50;67.43;;;;;;;21.79;61.62;98979.59;4993405;28;20073;-65
2022/12/03 11:59:14;;;;;;;118.38;69.13;;;;;;;21.65;62.59;98977.47;4990921;28;20394;-62
2022/12/03 12:02:26;;;;;;;135.38;73.05;;;;;;;21.56;62.32;98979.13;4994498;28;20461;-63
2022/12/03 12:05:21;;;;;;;;;;;;;;;21.48;62.80;98974.28;4996534;28;20474;-62
2022/12/03 12:08:18;;;;;;;123.55;70.70;;;;;;;21.42;63.45;98986.25;5006763;28;19921;-65
2022/12/03 12:11:01;;;;;;;141.55;75.68;;;;;;;21.31;63.64;98988.22;5000782;28;20129;-62
2022/12/03 12:13:53;;;;;;;129.38;76.05;;;;;;;21.35;64.03;98985.75;4989265;28;20124;-64
2022/12/03 12:16:52;;;;;;;130.68;76.45;;;;;;;21.38;61.67;98987.91;4989117;28;20064;-64
2022/12/03 12:19:42;;;;;;;127.80;75.55;;;;;;;21.34;62.50;98992.28;4979183;28;20552;-64
2022/12/03 12:22:36;;;;;;;146.35;79.80;;;;;;;21.08;63.14;98995.09;4988968;28;20077;-62
2022/12/03 12:25:37;;;;;;;146.27;79.00;;;;;;;21.01;63.54;98995.38;4997550;28;20053;-64
2022/12/03 12:28:34;;;;;;;145.77;79.60;;;;;;;20.80;66.06;99004.69;4992611;28;20666;-64
2022/12/03 12:31:25;;;;;;;148.75;80.28;;;;;;;20.70;65.29;99000.06;4988533;28;20137;-63
2022/12/03 12:34:08;;;;;;;156.85;84.45;;;;;;;20.76;65.59;99001.69;4988820;28;20057;-62
2022/12/03 12:37:00;;;;;;;169.85;83.03;;;;;;;20.69;65.71;99009.31;4997485;28;20050;-62
2022/12/03 12:39:42;;;;;;;153.57;83.03;;;;;;;20.61;65.46;99015.31;4996747;28;20061;-62
2022/12/03 12:42:42;;;;;;;145.30;84.43;;;;;;;20.44;65.78;99004.66;5003117;28;20084;-63
2022/12/03 12:45:21;;;;;;;154.27;83.60;;;;;;;20.34;65.68;99008.19;4999431;28;20046;-62
2022/12/03 12:48:23;;;;;;;147.65;86.53;;;;;;;20.29;67.48;99011.75;4986990;28;20050;-61
2022/12/03 12:51:23;;;;;;;170.00;88.95;;;;;;;20.23;67.74;99017.44;4986982;28;20046;-64
2022/12/03 12:54:12;;;;;;;152.32;86.72;;;;;;;20.18;66.53;99011.97;5007390;28;20049;-62
2022/12/03 12:57:02;;;;;;;152.10;88.00;;;;;;;20.09;66.42;99020.69;4995147;28;20050;-63
2022/12/03 12:59:52;;;;;;;159.50;87.93;;;;;;;20.07;67.19;99024.78;4987897;28;20058;-61
2022/12/03 13:02:51;;;;;;;166.88;92.18;;;;;;;19.97;68.20;99022.84;4990474;28;20232;-65
2022/12/03 13:05:43;;;;;;;165.98;88.95;;;;;;;19.92;68.32;99025.53;4994369;28;20104;-61
2022/12/03 13:08:45;;;;;;;177.25;91.20;;;;;;;19.84;68.54;99036.97;4998895;28;20143;-64
2022/12/03 13:11:44;;;;;;;159.52;91.45;;;;;;;19.72;69.17;99039.91;4992176;28;20497;-63
2022/12/03 13:14:39;;;;;;;176.93;93.35;;;;;;;19.67;69.73;99037.94;4992613;28;20143;-65
2022/12/03 13:17:23;;;;;;;167.13;91.95;;;;;;;19.64;69.99;99043.94;4997738;28;20061;-63
2022/12/03 13:20:24;;;;;;;156.90;92.65;;;;;;;19.57;69.89;99048.81;4994762;28;20108;-62
2022/12/03 13:23:33;;;;;;;183.98;94.30;;;;;;;19.56;70.14;99053.41;4996725;28;20120;-63
2022/12/03 13:26:45;;;;;;;177.45;92.85;;;;;;;19.54;70.12;99054.75;4973035;28;20062;-63
2022/12/03 13:29:41;;;;;;;179.73;93.60;;;;;;;19.61;68.94;99059.97;4987521;28;20046;-64
2022/12/03 13:32:20;;;;;;;168.95;90.88;;;;;;;19.65;68.88;99058.38;4995745;28;20682;-65
2022/12/03 13:35:34;;;;;;;177.23;94.15;;;;;;;19.63;68.96;99064.06;4976762;28;20521;-62
2022/12/03 13:38:15;;;;;;;188.52;96.55;;;;;;;19.58;69.95;99072.19;4978066;28;20486;-63
2022/12/03 13:41:05;;;;;;;195.75;99.93;;;;;;;19.63;69.34;99069.50;4994216;28;20136;-64
2022/12/03 13:43:54;;;;;;;168.07;98.78;;;;;;;19.43;70.18;99077.56;4992374;28;20046;-65
2022/12/03 13:46:35;;;;;;;198.98;100.20;;;;;;;19.33;71.17;99075.59;4992063;28;20049;-67
2022/12/03 13:49:28;;;;;;;205.38;105.65;;;;;;;19.32;71.49;99079.41;5000124;28;20117;-70